sensor_id;sensor_type;location;lat;lon;timestamp;P1;durP1;ratioP1;P2;durP2;ratioP2
21527;SDS011;10925;49.102;-0.370;2023-06-26T00:02:15;16.42;;;3.30;;
21527;SDS011;10925;49.102;-0.370;2023-06-26T00:04:42;20.08;;;3.47;;
21527;SDS011;10925;49.102;-0.370;2023-06-26T00:07:07;15.85;;;3.72;;
21527;SDS011;10925;49.102;-0.370;2023-06-26T00:09:34;19.13;;;3.33;;
21527;SDS011;10925;49.102;-0.370;2023-06-26T00:12:01;14.98;;;3.15;;
21527;SDS011;10925;49.102;-0.370;2023-06-26T00:14:28;18.13;;;3.35;;
21527;SDS011;10925;49.102;-0.370;2023-06-26T00:16:54;15.50;;;3.83;;
21527;SDS011;10925;49.102;-0.370;2023-06-26T00:19:21;18.63;;;3.08;;
21527;SDS011;10925;49.102;-0.370;2023-06-26T00:21:48;17.30;;;3.20;;
21527;SDS011;10925;49.102;-0.370;2023-06-26T00:24:15;15.57;;;3.15;;
21527;SDS011;10925;49.102;-0.370;2023-06-26T00:26:40;14.27;;;3.20;;
21527;SDS011;10925;49.102;-0.370;2023-06-26T00:29:07;13.90;;;2.65;;
21527;SDS011;10925;49.102;-0.370;2023-06-26T00:31:34;16.25;;;2.92;;
21527;SDS011;10925;49.102;-0.370;2023-06-26T00:34:00;16.38;;;3.10;;
21527;SDS011;10925;49.102;-0.370;2023-06-26T00:36:26;18.55;;;3.40;;
21527;SDS011;10925;49.102;-0.370;2023-06-26T00:38:53;13.82;;;3.13;;
21527;SDS011;10925;49.102;-0.370;2023-06-26T00:41:20;17.00;;;3.22;;
21527;SDS011;10925;49.102;-0.370;2023-06-26T00:43:46;17.48;;;3.78;;
21527;SDS011;10925;49.102;-0.370;2023-06-26T00:46:14;19.35;;;3.80;;
21527;SDS011;10925;49.102;-0.370;2023-06-26T00:48:41;14.10;;;2.97;;
21527;SDS011;10925;49.102;-0.370;2023-06-26T00:51:11;10.38;;;3.10;;
21527;SDS011;10925;49.102;-0.370;2023-06-26T00:53:38;21.08;;;3.40;;
21527;SDS011;10925;49.102;-0.370;2023-06-26T00:56:05;13.00;;;3.10;;
21527;SDS011;10925;49.102;-0.370;2023-06-26T00:58:32;17.02;;;3.40;;
21527;SDS011;10925;49.102;-0.370;2023-06-26T01:00:59;13.52;;;3.72;;
21527;SDS011;10925;49.102;-0.370;2023-06-26T01:03:27;17.88;;;4.40;;
21527;SDS011;10925;49.102;-0.370;2023-06-26T01:05:54;17.63;;;3.50;;
21527;SDS011;10925;49.102;-0.370;2023-06-26T01:08:23;17.42;;;3.72;;
21527;SDS011;10925;49.102;-0.370;2023-06-26T01:10:50;16.08;;;4.40;;
21527;SDS011;10925;49.102;-0.370;2023-06-26T01:13:17;16.77;;;3.30;;
21527;SDS011;10925;49.102;-0.370;2023-06-26T01:15:44;16.48;;;3.67;;
21527;SDS011;10925;49.102;-0.370;2023-06-26T01:18:10;17.27;;;3.88;;
21527;SDS011;10925;49.102;-0.370;2023-06-26T01:20:36;17.75;;;4.30;;
21527;SDS011;10925;49.102;-0.370;2023-06-26T01:23:13;16.58;;;3.90;;
21527;SDS011;10925;49.102;-0.370;2023-06-26T01:25:47;14.45;;;3.97;;
21527;SDS011;10925;49.102;-0.370;2023-06-26T01:28:19;23.30;;;3.72;;
21527;SDS011;10925;49.102;-0.370;2023-06-26T01:30:46;17.20;;;3.70;;
21527;SDS011;10925;49.102;-0.370;2023-06-26T01:33:13;19.95;;;3.92;;
21527;SDS011;10925;49.102;-0.370;2023-06-26T01:35:40;18.25;;;4.50;;
21527;SDS011;10925;49.102;-0.370;2023-06-26T01:38:17;16.30;;;3.60;;
21527;SDS011;10925;49.102;-0.370;2023-06-26T01:40:44;15.00;;;3.75;;
21527;SDS011;10925;49.102;-0.370;2023-06-26T01:43:36;18.58;;;3.58;;
21527;SDS011;10925;49.102;-0.370;2023-06-26T01:48:49;16.02;;;3.90;;
21527;SDS011;10925;49.102;-0.370;2023-06-26T01:51:19;21.40;;;3.67;;
21527;SDS011;10925;49.102;-0.370;2023-06-26T01:53:50;15.23;;;4.20;;
21527;SDS011;10925;49.102;-0.370;2023-06-26T01:56:18;18.67;;;3.67;;
21527;SDS011;10925;49.102;-0.370;2023-06-26T01:58:46;21.15;;;4.07;;
21527;SDS011;10925;49.102;-0.370;2023-06-26T02:01:13;17.00;;;3.58;;
21527;SDS011;10925;49.102;-0.370;2023-06-26T02:03:40;21.42;;;4.45;;
21527;SDS011;10925;49.102;-0.370;2023-06-26T02:06:07;20.13;;;5.05;;
21527;SDS011;10925;49.102;-0.370;2023-06-26T02:08:33;18.80;;;3.80;;
21527;SDS011;10925;49.102;-0.370;2023-06-26T02:10:58;18.35;;;3.78;;
21527;SDS011;10925;49.102;-0.370;2023-06-26T02:13:25;12.82;;;3.70;;
21527;SDS011;10925;49.102;-0.370;2023-06-26T02:15:52;19.48;;;3.97;;
21527;SDS011;10925;49.102;-0.370;2023-06-26T02:18:18;25.27;;;4.53;;
21527;SDS011;10925;49.102;-0.370;2023-06-26T02:20:48;24.13;;;4.63;;
21527;SDS011;10925;49.102;-0.370;2023-06-26T02:23:13;18.50;;;3.95;;
21527;SDS011;10925;49.102;-0.370;2023-06-26T02:25:40;24.63;;;4.10;;
21527;SDS011;10925;49.102;-0.370;2023-06-26T02:28:08;26.35;;;4.28;;
21527;SDS011;10925;49.102;-0.370;2023-06-26T02:30:34;14.23;;;4.15;;
21527;SDS011;10925;49.102;-0.370;2023-06-26T02:33:08;22.08;;;4.63;;
21527;SDS011;10925;49.102;-0.370;2023-06-26T02:35:34;14.93;;;3.92;;
21527;SDS011;10925;49.102;-0.370;2023-06-26T02:38:01;21.00;;;4.45;;
21527;SDS011;10925;49.102;-0.370;2023-06-26T02:40:28;19.88;;;3.90;;
21527;SDS011;10925;49.102;-0.370;2023-06-26T02:42:54;19.48;;;4.80;;
21527;SDS011;10925;49.102;-0.370;2023-06-26T02:45:20;17.15;;;4.20;;
21527;SDS011;10925;49.102;-0.370;2023-06-26T02:47:47;16.67;;;4.38;;
21527;SDS011;10925;49.102;-0.370;2023-06-26T02:50:14;21.95;;;4.55;;
21527;SDS011;10925;49.102;-0.370;2023-06-26T02:52:59;27.15;;;4.32;;
21527;SDS011;10925;49.102;-0.370;2023-06-26T02:55:26;23.10;;;4.00;;
21527;SDS011;10925;49.102;-0.370;2023-06-26T02:57:54;25.77;;;4.88;;
21527;SDS011;10925;49.102;-0.370;2023-06-26T03:00:21;19.63;;;4.35;;
21527;SDS011;10925;49.102;-0.370;2023-06-26T03:02:51;19.83;;;4.43;;
21527;SDS011;10925;49.102;-0.370;2023-06-26T03:05:19;23.55;;;4.85;;
21527;SDS011;10925;49.102;-0.370;2023-06-26T03:07:46;18.73;;;3.85;;
21527;SDS011;10925;49.102;-0.370;2023-06-26T03:10:14;20.60;;;5.32;;
21527;SDS011;10925;49.102;-0.370;2023-06-26T03:12:42;27.15;;;4.25;;
21527;SDS011;10925;49.102;-0.370;2023-06-26T03:15:08;22.33;;;4.55;;
21527;SDS011;10925;49.102;-0.370;2023-06-26T03:17:35;22.42;;;4.82;;
21527;SDS011;10925;49.102;-0.370;2023-06-26T03:20:00;19.98;;;4.95;;
21527;SDS011;10925;49.102;-0.370;2023-06-26T03:22:26;20.55;;;4.78;;
21527;SDS011;10925;49.102;-0.370;2023-06-26T03:24:51;16.95;;;3.92;;
21527;SDS011;10925;49.102;-0.370;2023-06-26T03:27:17;18.48;;;4.07;;
21527;SDS011;10925;49.102;-0.370;2023-06-26T03:29:47;16.10;;;3.50;;
21527;SDS011;10925;49.102;-0.370;2023-06-26T03:32:20;19.23;;;4.15;;
21527;SDS011;10925;49.102;-0.370;2023-06-26T03:34:47;24.83;;;4.97;;
21527;SDS011;10925;49.102;-0.370;2023-06-26T03:37:13;21.38;;;4.57;;
21527;SDS011;10925;49.102;-0.370;2023-06-26T03:39:40;18.02;;;4.30;;
21527;SDS011;10925;49.102;-0.370;2023-06-26T03:42:07;21.40;;;4.70;;
21527;SDS011;10925;49.102;-0.370;2023-06-26T03:44:34;22.67;;;4.78;;
21527;SDS011;10925;49.102;-0.370;2023-06-26T03:47:01;25.58;;;4.82;;
21527;SDS011;10925;49.102;-0.370;2023-06-26T03:49:28;24.98;;;6.05;;
21527;SDS011;10925;49.102;-0.370;2023-06-26T03:51:55;21.52;;;5.10;;
21527;SDS011;10925;49.102;-0.370;2023-06-26T03:54:22;23.83;;;4.68;;
21527;SDS011;10925;49.102;-0.370;2023-06-26T03:56:49;19.42;;;5.15;;
21527;SDS011;10925;49.102;-0.370;2023-06-26T03:59:15;24.70;;;5.40;;
21527;SDS011;10925;49.102;-0.370;2023-06-26T04:01:42;23.63;;;4.35;;
21527;SDS011;10925;49.102;-0.370;2023-06-26T04:04:09;16.00;;;4.50;;
21527;SDS011;10925;49.102;-0.370;2023-06-26T04:06:36;17.92;;;4.63;;
21527;SDS011;10925;49.102;-0.370;2023-06-26T04:09:03;20.77;;;4.82;;
21527;SDS011;10925;49.102;-0.370;2023-06-26T04:11:29;32.10;;;5.18;;
21527;SDS011;10925;49.102;-0.370;2023-06-26T04:13:56;25.05;;;5.75;;
21527;SDS011;10925;49.102;-0.370;2023-06-26T04:16:25;24.33;;;4.82;;
21527;SDS011;10925;49.102;-0.370;2023-06-26T04:18:51;22.15;;;5.13;;
21527;SDS011;10925;49.102;-0.370;2023-06-26T04:21:18;25.23;;;4.60;;
21527;SDS011;10925;49.102;-0.370;2023-06-26T04:23:45;27.92;;;5.45;;
21527;SDS011;10925;49.102;-0.370;2023-06-26T04:26:12;19.10;;;4.22;;
21527;SDS011;10925;49.102;-0.370;2023-06-26T04:28:41;20.08;;;5.35;;
21527;SDS011;10925;49.102;-0.370;2023-06-26T04:31:08;23.42;;;4.20;;
21527;SDS011;10925;49.102;-0.370;2023-06-26T04:33:36;23.77;;;4.60;;
21527;SDS011;10925;49.102;-0.370;2023-06-26T04:36:04;19.65;;;4.65;;
21527;SDS011;10925;49.102;-0.370;2023-06-26T04:38:32;22.23;;;4.72;;
21527;SDS011;10925;49.102;-0.370;2023-06-26T04:40:59;25.17;;;4.88;;
21527;SDS011;10925;49.102;-0.370;2023-06-26T04:43:26;20.40;;;4.47;;
21527;SDS011;10925;49.102;-0.370;2023-06-26T04:45:52;23.58;;;4.60;;
21527;SDS011;10925;49.102;-0.370;2023-06-26T04:48:19;20.25;;;4.53;;
21527;SDS011;10925;49.102;-0.370;2023-06-26T04:50:46;23.33;;;4.65;;
21527;SDS011;10925;49.102;-0.370;2023-06-26T04:53:20;19.35;;;4.43;;
21527;SDS011;10925;49.102;-0.370;2023-06-26T04:55:48;21.65;;;5.03;;
21527;SDS011;10925;49.102;-0.370;2023-06-26T04:58:15;17.88;;;4.80;;
21527;SDS011;10925;49.102;-0.370;2023-06-26T05:00:41;24.73;;;5.22;;
21527;SDS011;10925;49.102;-0.370;2023-06-26T05:03:09;22.40;;;5.00;;
21527;SDS011;10925;49.102;-0.370;2023-06-26T05:05:36;15.55;;;4.30;;
21527;SDS011;10925;49.102;-0.370;2023-06-26T05:08:15;17.80;;;4.15;;
21527;SDS011;10925;49.102;-0.370;2023-06-26T05:10:42;18.33;;;4.38;;
21527;SDS011;10925;49.102;-0.370;2023-06-26T05:13:07;21.40;;;4.65;;
21527;SDS011;10925;49.102;-0.370;2023-06-26T05:15:33;18.77;;;4.13;;
21527;SDS011;10925;49.102;-0.370;2023-06-26T05:17:58;23.45;;;4.55;;
21527;SDS011;10925;49.102;-0.370;2023-06-26T05:20:25;18.27;;;4.05;;
21527;SDS011;10925;49.102;-0.370;2023-06-26T05:22:52;16.13;;;5.00;;
21527;SDS011;10925;49.102;-0.370;2023-06-26T05:25:19;20.17;;;4.07;;
21527;SDS011;10925;49.102;-0.370;2023-06-26T05:27:49;16.75;;;4.30;;
21527;SDS011;10925;49.102;-0.370;2023-06-26T05:30:16;21.08;;;4.90;;
21527;SDS011;10925;49.102;-0.370;2023-06-26T05:32:43;16.90;;;3.92;;
21527;SDS011;10925;49.102;-0.370;2023-06-26T05:35:11;21.65;;;4.70;;
21527;SDS011;10925;49.102;-0.370;2023-06-26T05:37:39;18.27;;;4.15;;
21527;SDS011;10925;49.102;-0.370;2023-06-26T05:40:07;19.30;;;4.15;;
21527;SDS011;10925;49.102;-0.370;2023-06-26T05:42:33;17.02;;;4.00;;
21527;SDS011;10925;49.102;-0.370;2023-06-26T05:45:00;19.33;;;3.75;;
21527;SDS011;10925;49.102;-0.370;2023-06-26T05:47:27;23.25;;;3.75;;
21527;SDS011;10925;49.102;-0.370;2023-06-26T05:49:54;15.80;;;3.58;;
21527;SDS011;10925;49.102;-0.370;2023-06-26T05:52:21;21.30;;;4.15;;
21527;SDS011;10925;49.102;-0.370;2023-06-26T05:54:47;21.02;;;3.72;;
21527;SDS011;10925;49.102;-0.370;2023-06-26T05:57:13;17.38;;;3.45;;
21527;SDS011;10925;49.102;-0.370;2023-06-26T05:59:40;19.05;;;3.58;;
21527;SDS011;10925;49.102;-0.370;2023-06-26T06:02:07;17.83;;;3.78;;
21527;SDS011;10925;49.102;-0.370;2023-06-26T06:04:33;16.38;;;3.22;;
21527;SDS011;10925;49.102;-0.370;2023-06-26T06:07:00;14.95;;;3.10;;
21527;SDS011;10925;49.102;-0.370;2023-06-26T06:09:42;10.13;;;3.40;;
21527;SDS011;10925;49.102;-0.370;2023-06-26T06:12:08;17.17;;;2.70;;
21527;SDS011;10925;49.102;-0.370;2023-06-26T06:14:35;18.02;;;2.90;;
21527;SDS011;10925;49.102;-0.370;2023-06-26T06:17:02;23.60;;;3.42;;
21527;SDS011;10925;49.102;-0.370;2023-06-26T06:19:29;19.33;;;3.38;;
21527;SDS011;10925;49.102;-0.370;2023-06-26T06:21:56;17.80;;;3.30;;
21527;SDS011;10925;49.102;-0.370;2023-06-26T06:24:22;16.48;;;3.78;;
21527;SDS011;10925;49.102;-0.370;2023-06-26T06:26:48;12.20;;;2.80;;
21527;SDS011;10925;49.102;-0.370;2023-06-26T06:29:14;13.15;;;2.67;;
21527;SDS011;10925;49.102;-0.370;2023-06-26T06:31:41;16.10;;;3.58;;
21527;SDS011;10925;49.102;-0.370;2023-06-26T06:34:08;16.92;;;3.00;;
21527;SDS011;10925;49.102;-0.370;2023-06-26T06:36:35;20.45;;;3.05;;
21527;SDS011;10925;49.102;-0.370;2023-06-26T06:39:01;15.65;;;2.60;;
21527;SDS011;10925;49.102;-0.370;2023-06-26T06:41:27;13.48;;;2.88;;
21527;SDS011;10925;49.102;-0.370;2023-06-26T06:43:52;18.08;;;2.83;;
21527;SDS011;10925;49.102;-0.370;2023-06-26T06:46:19;18.83;;;3.10;;
21527;SDS011;10925;49.102;-0.370;2023-06-26T06:48:46;12.05;;;2.72;;
21527;SDS011;10925;49.102;-0.370;2023-06-26T06:51:13;12.25;;;2.47;;
21527;SDS011;10925;49.102;-0.370;2023-06-26T06:53:40;15.57;;;2.55;;
21527;SDS011;10925;49.102;-0.370;2023-06-26T06:56:06;9.90;;;2.25;;
21527;SDS011;10925;49.102;-0.370;2023-06-26T06:58:33;15.80;;;2.63;;
21527;SDS011;10925;49.102;-0.370;2023-06-26T07:01:00;12.80;;;2.17;;
21527;SDS011;10925;49.102;-0.370;2023-06-26T07:03:29;17.60;;;2.60;;
21527;SDS011;10925;49.102;-0.370;2023-06-26T07:05:56;11.23;;;2.53;;
21527;SDS011;10925;49.102;-0.370;2023-06-26T07:08:23;9.70;;;2.20;;
21527;SDS011;10925;49.102;-0.370;2023-06-26T07:10:49;14.75;;;2.50;;
21527;SDS011;10925;49.102;-0.370;2023-06-26T07:13:16;11.93;;;2.53;;
21527;SDS011;10925;49.102;-0.370;2023-06-26T07:15:43;12.75;;;2.08;;
21527;SDS011;10925;49.102;-0.370;2023-06-26T07:18:11;10.88;;;2.80;;
21527;SDS011;10925;49.102;-0.370;2023-06-26T07:20:38;11.25;;;2.28;;
21527;SDS011;10925;49.102;-0.370;2023-06-26T07:23:05;12.75;;;2.28;;
21527;SDS011;10925;49.102;-0.370;2023-06-26T07:28:35;11.18;;;2.38;;
21527;SDS011;10925;49.102;-0.370;2023-06-26T07:31:00;40.58;;;3.53;;
21527;SDS011;10925;49.102;-0.370;2023-06-26T07:33:27;13.88;;;2.95;;
21527;SDS011;10925;49.102;-0.370;2023-06-26T07:35:54;11.48;;;2.72;;
21527;SDS011;10925;49.102;-0.370;2023-06-26T07:38:21;9.20;;;2.08;;
21527;SDS011;10925;49.102;-0.370;2023-06-26T07:40:47;7.55;;;2.10;;
21527;SDS011;10925;49.102;-0.370;2023-06-26T07:43:14;14.52;;;2.78;;
21527;SDS011;10925;49.102;-0.370;2023-06-26T07:45:41;10.38;;;2.35;;
21527;SDS011;10925;49.102;-0.370;2023-06-26T07:48:06;9.35;;;2.40;;
21527;SDS011;10925;49.102;-0.370;2023-06-26T07:50:34;8.25;;;2.35;;
21527;SDS011;10925;49.102;-0.370;2023-06-26T07:53:01;8.82;;;2.47;;
21527;SDS011;10925;49.102;-0.370;2023-06-26T07:55:28;13.45;;;2.35;;
21527;SDS011;10925;49.102;-0.370;2023-06-26T07:57:55;11.00;;;2.30;;
21527;SDS011;10925;49.102;-0.370;2023-06-26T08:00:22;12.23;;;2.10;;
21527;SDS011;10925;49.102;-0.370;2023-06-26T08:02:51;10.77;;;1.88;;
21527;SDS011;10925;49.102;-0.370;2023-06-26T08:05:18;8.18;;;2.35;;
21527;SDS011;10925;49.102;-0.370;2023-06-26T08:07:45;6.97;;;1.77;;
21527;SDS011;10925;49.102;-0.370;2023-06-26T08:10:13;9.15;;;2.03;;
21527;SDS011;10925;49.102;-0.370;2023-06-26T08:12:39;12.52;;;2.53;;
21527;SDS011;10925;49.102;-0.370;2023-06-26T08:15:09;11.90;;;2.42;;
21527;SDS011;10925;49.102;-0.370;2023-06-26T08:17:36;9.82;;;2.22;;
21527;SDS011;10925;49.102;-0.370;2023-06-26T08:20:05;9.30;;;2.00;;
21527;SDS011;10925;49.102;-0.370;2023-06-26T08:22:34;9.55;;;1.92;;
21527;SDS011;10925;49.102;-0.370;2023-06-26T08:25:02;8.48;;;1.80;;
21527;SDS011;10925;49.102;-0.370;2023-06-26T08:27:28;7.22;;;1.88;;
21527;SDS011;10925;49.102;-0.370;2023-06-26T08:29:55;14.18;;;2.40;;
21527;SDS011;10925;49.102;-0.370;2023-06-26T08:32:22;9.77;;;2.35;;
21527;SDS011;10925;49.102;-0.370;2023-06-26T08:34:49;8.55;;;2.33;;
21527;SDS011;10925;49.102;-0.370;2023-06-26T08:37:17;8.93;;;1.77;;
21527;SDS011;10925;49.102;-0.370;2023-06-26T08:39:43;8.65;;;2.03;;
21527;SDS011;10925;49.102;-0.370;2023-06-26T08:42:10;10.13;;;2.13;;
21527;SDS011;10925;49.102;-0.370;2023-06-26T08:44:37;9.40;;;2.03;;
21527;SDS011;10925;49.102;-0.370;2023-06-26T08:47:02;6.82;;;1.70;;
21527;SDS011;10925;49.102;-0.370;2023-06-26T08:49:33;10.18;;;1.90;;
21527;SDS011;10925;49.102;-0.370;2023-06-26T08:52:06;7.88;;;1.63;;
21527;SDS011;10925;49.102;-0.370;2023-06-26T08:54:34;10.43;;;1.90;;
21527;SDS011;10925;49.102;-0.370;2023-06-26T08:57:03;10.32;;;1.90;;
21527;SDS011;10925;49.102;-0.370;2023-06-26T08:59:31;9.48;;;2.25;;
21527;SDS011;10925;49.102;-0.370;2023-06-26T09:01:56;5.78;;;1.85;;
21527;SDS011;10925;49.102;-0.370;2023-06-26T09:04:26;9.50;;;1.90;;
21527;SDS011;10925;49.102;-0.370;2023-06-26T09:06:53;9.20;;;1.92;;
21527;SDS011;10925;49.102;-0.370;2023-06-26T09:09:20;7.68;;;1.67;;
21527;SDS011;10925;49.102;-0.370;2023-06-26T09:11:47;7.65;;;2.20;;
21527;SDS011;10925;49.102;-0.370;2023-06-26T09:14:14;12.77;;;1.98;;
21527;SDS011;10925;49.102;-0.370;2023-06-26T09:16:41;6.50;;;1.85;;
21527;SDS011;10925;49.102;-0.370;2023-06-26T09:19:09;7.75;;;1.85;;
21527;SDS011;10925;49.102;-0.370;2023-06-26T09:21:38;9.85;;;1.95;;
21527;SDS011;10925;49.102;-0.370;2023-06-26T09:24:06;11.68;;;2.63;;
21527;SDS011;10925;49.102;-0.370;2023-06-26T09:26:37;6.78;;;1.90;;
21527;SDS011;10925;49.102;-0.370;2023-06-26T09:29:05;5.90;;;1.90;;
21527;SDS011;10925;49.102;-0.370;2023-06-26T09:31:30;6.38;;;1.58;;
21527;SDS011;10925;49.102;-0.370;2023-06-26T09:34:07;9.35;;;1.80;;
21527;SDS011;10925;49.102;-0.370;2023-06-26T09:36:34;6.07;;;1.77;;
21527;SDS011;10925;49.102;-0.370;2023-06-26T09:39:06;6.65;;;2.05;;
21527;SDS011;10925;49.102;-0.370;2023-06-26T09:41:35;7.50;;;1.70;;
21527;SDS011;10925;49.102;-0.370;2023-06-26T09:44:02;9.57;;;2.25;;
21527;SDS011;10925;49.102;-0.370;2023-06-26T09:46:30;9.38;;;2.42;;
21527;SDS011;10925;49.102;-0.370;2023-06-26T09:49:07;10.00;;;1.88;;
21527;SDS011;10925;49.102;-0.370;2023-06-26T09:54:37;7.45;;;1.98;;
21527;SDS011;10925;49.102;-0.370;2023-06-26T09:57:09;10.30;;;2.40;;
21527;SDS011;10925;49.102;-0.370;2023-06-26T09:59:36;10.27;;;2.30;;
21527;SDS011;10925;49.102;-0.370;2023-06-26T10:02:03;17.98;;;2.40;;
21527;SDS011;10925;49.102;-0.370;2023-06-26T10:04:30;7.45;;;1.90;;
21527;SDS011;10925;49.102;-0.370;2023-06-26T10:06:57;7.32;;;1.90;;
21527;SDS011;10925;49.102;-0.370;2023-06-26T10:09:24;12.65;;;3.17;;
21527;SDS011;10925;49.102;-0.370;2023-06-26T10:14:19;8.77;;;2.22;;
21527;SDS011;10925;49.102;-0.370;2023-06-26T10:16:46;8.80;;;2.75;;
21527;SDS011;10925;49.102;-0.370;2023-06-26T10:19:14;8.70;;;1.95;;
21527;SDS011;10925;49.102;-0.370;2023-06-26T10:21:43;8.05;;;1.70;;
21527;SDS011;10925;49.102;-0.370;2023-06-26T10:24:10;9.80;;;2.10;;
21527;SDS011;10925;49.102;-0.370;2023-06-26T10:26:41;7.75;;;2.38;;
21527;SDS011;10925;49.102;-0.370;2023-06-26T10:29:08;12.55;;;3.40;;
21527;SDS011;10925;49.102;-0.370;2023-06-26T10:31:34;8.15;;;1.80;;
21527;SDS011;10925;49.102;-0.370;2023-06-26T10:34:02;8.55;;;1.75;;
21527;SDS011;10925;49.102;-0.370;2023-06-26T10:36:30;8.90;;;2.00;;
21527;SDS011;10925;49.102;-0.370;2023-06-26T10:39:01;5.40;;;1.73;;
21527;SDS011;10925;49.102;-0.370;2023-06-26T10:41:38;9.32;;;2.28;;
21527;SDS011;10925;49.102;-0.370;2023-06-26T10:44:18;9.52;;;2.65;;
21527;SDS011;10925;49.102;-0.370;2023-06-26T10:46:54;7.60;;;2.10;;
21527;SDS011;10925;49.102;-0.370;2023-06-26T10:49:26;6.60;;;1.77;;
21527;SDS011;10925;49.102;-0.370;2023-06-26T10:51:54;8.75;;;2.33;;
21527;SDS011;10925;49.102;-0.370;2023-06-26T10:54:27;6.78;;;1.95;;
21527;SDS011;10925;49.102;-0.370;2023-06-26T10:56:55;9.88;;;2.63;;
21527;SDS011;10925;49.102;-0.370;2023-06-26T10:59:27;7.80;;;1.90;;
21527;SDS011;10925;49.102;-0.370;2023-06-26T11:01:58;7.47;;;2.00;;
21527;SDS011;10925;49.102;-0.370;2023-06-26T11:14:46;9.85;;;2.05;;
21527;SDS011;10925;49.102;-0.370;2023-06-26T11:17:13;5.80;;;2.22;;
21527;SDS011;10925;49.102;-0.370;2023-06-26T11:19:41;9.70;;;2.15;;
21527;SDS011;10925;49.102;-0.370;2023-06-26T11:22:08;7.60;;;2.25;;
21527;SDS011;10925;49.102;-0.370;2023-06-26T11:24:34;6.90;;;2.10;;
21527;SDS011;10925;49.102;-0.370;2023-06-26T11:27:02;9.10;;;2.08;;
21527;SDS011;10925;49.102;-0.370;2023-06-26T11:29:29;9.57;;;2.35;;
21527;SDS011;10925;49.102;-0.370;2023-06-26T11:32:00;4.85;;;1.90;;
21527;SDS011;10925;49.102;-0.370;2023-06-26T11:34:30;5.53;;;1.65;;
21527;SDS011;10925;49.102;-0.370;2023-06-26T11:39:59;8.00;;;2.22;;
21527;SDS011;10925;49.102;-0.370;2023-06-26T11:42:26;6.85;;;2.15;;
21527;SDS011;10925;49.102;-0.370;2023-06-26T11:44:54;5.38;;;1.92;;
21527;SDS011;10925;49.102;-0.370;2023-06-26T11:47:21;12.15;;;2.55;;
21527;SDS011;10925;49.102;-0.370;2023-06-26T11:49:49;8.38;;;2.40;;
21527;SDS011;10925;49.102;-0.370;2023-06-26T11:52:16;9.00;;;2.30;;
21527;SDS011;10925;49.102;-0.370;2023-06-26T11:54:43;9.77;;;1.90;;
21527;SDS011;10925;49.102;-0.370;2023-06-26T11:57:12;7.82;;;2.63;;
21527;SDS011;10925;49.102;-0.370;2023-06-26T11:59:39;10.65;;;2.30;;
21527;SDS011;10925;49.102;-0.370;2023-06-26T12:02:09;9.50;;;2.30;;
21527;SDS011;10925;49.102;-0.370;2023-06-26T12:04:37;9.45;;;2.00;;
21527;SDS011;10925;49.102;-0.370;2023-06-26T12:07:05;7.65;;;2.10;;
21527;SDS011;10925;49.102;-0.370;2023-06-26T12:09:38;9.57;;;2.25;;
21527;SDS011;10925;49.102;-0.370;2023-06-26T12:12:03;7.63;;;1.90;;
21527;SDS011;10925;49.102;-0.370;2023-06-26T12:14:30;7.35;;;2.08;;
21527;SDS011;10925;49.102;-0.370;2023-06-26T12:17:03;11.23;;;2.72;;
21527;SDS011;10925;49.102;-0.370;2023-06-26T12:19:29;13.43;;;2.30;;
21527;SDS011;10925;49.102;-0.370;2023-06-26T12:21:54;11.75;;;2.00;;
21527;SDS011;10925;49.102;-0.370;2023-06-26T12:24:23;8.88;;;2.35;;
21527;SDS011;10925;49.102;-0.370;2023-06-26T12:26:50;9.27;;;2.53;;
21527;SDS011;10925;49.102;-0.370;2023-06-26T12:29:17;10.00;;;1.92;;
21527;SDS011;10925;49.102;-0.370;2023-06-26T12:31:44;11.70;;;2.20;;
21527;SDS011;10925;49.102;-0.370;2023-06-26T12:34:14;14.63;;;2.10;;
21527;SDS011;10925;49.102;-0.370;2023-06-26T12:36:45;5.82;;;1.65;;
21527;SDS011;10925;49.102;-0.370;2023-06-26T12:39:13;10.52;;;2.47;;
21527;SDS011;10925;49.102;-0.370;2023-06-26T12:41:46;6.35;;;2.28;;
21527;SDS011;10925;49.102;-0.370;2023-06-26T12:44:19;7.70;;;2.55;;
21527;SDS011;10925;49.102;-0.370;2023-06-26T12:46:48;8.18;;;2.63;;
21527;SDS011;10925;49.102;-0.370;2023-06-26T12:49:14;10.60;;;2.47;;
21527;SDS011;10925;49.102;-0.370;2023-06-26T12:51:57;11.32;;;2.25;;
21527;SDS011;10925;49.102;-0.370;2023-06-26T12:54:24;13.75;;;2.45;;
21527;SDS011;10925;49.102;-0.370;2023-06-26T12:56:51;7.35;;;2.00;;
21527;SDS011;10925;49.102;-0.370;2023-06-26T12:59:22;11.73;;;2.05;;
21527;SDS011;10925;49.102;-0.370;2023-06-26T13:01:47;7.78;;;2.05;;
21527;SDS011;10925;49.102;-0.370;2023-06-26T13:04:15;10.68;;;2.70;;
21527;SDS011;10925;49.102;-0.370;2023-06-26T13:06:41;11.48;;;2.55;;
21527;SDS011;10925;49.102;-0.370;2023-06-26T13:09:08;11.20;;;2.25;;
21527;SDS011;10925;49.102;-0.370;2023-06-26T13:11:36;7.55;;;2.22;;
21527;SDS011;10925;49.102;-0.370;2023-06-26T13:14:03;8.48;;;1.98;;
21527;SDS011;10925;49.102;-0.370;2023-06-26T13:16:37;11.10;;;2.13;;
21527;SDS011;10925;49.102;-0.370;2023-06-26T13:19:04;5.70;;;2.38;;
21527;SDS011;10925;49.102;-0.370;2023-06-26T13:21:29;10.40;;;2.45;;
21527;SDS011;10925;49.102;-0.370;2023-06-26T13:23:56;13.27;;;2.20;;
21527;SDS011;10925;49.102;-0.370;2023-06-26T13:26:24;11.27;;;2.00;;
21527;SDS011;10925;49.102;-0.370;2023-06-26T13:28:51;4.10;;;1.83;;
21527;SDS011;10925;49.102;-0.370;2023-06-26T13:31:18;9.40;;;2.08;;
21527;SDS011;10925;49.102;-0.370;2023-06-26T13:33:45;6.10;;;1.92;;
21527;SDS011;10925;49.102;-0.370;2023-06-26T13:36:14;10.32;;;2.70;;
21527;SDS011;10925;49.102;-0.370;2023-06-26T13:38:39;12.45;;;2.17;;
21527;SDS011;10925;49.102;-0.370;2023-06-26T13:41:06;9.02;;;2.58;;
21527;SDS011;10925;49.102;-0.370;2023-06-26T13:43:31;9.07;;;1.92;;
21527;SDS011;10925;49.102;-0.370;2023-06-26T13:45:57;9.50;;;1.88;;
21527;SDS011;10925;49.102;-0.370;2023-06-26T13:48:22;9.25;;;1.90;;
21527;SDS011;10925;49.102;-0.370;2023-06-26T13:50:55;10.02;;;2.05;;
21527;SDS011;10925;49.102;-0.370;2023-06-26T13:53:23;10.55;;;2.20;;
21527;SDS011;10925;49.102;-0.370;2023-06-26T13:55:49;12.90;;;2.15;;
21527;SDS011;10925;49.102;-0.370;2023-06-26T13:58:15;8.13;;;2.28;;
21527;SDS011;10925;49.102;-0.370;2023-06-26T14:00:42;6.63;;;2.38;;
21527;SDS011;10925;49.102;-0.370;2023-06-26T14:03:11;12.30;;;1.98;;
21527;SDS011;10925;49.102;-0.370;2023-06-26T14:05:38;9.52;;;2.15;;
21527;SDS011;10925;49.102;-0.370;2023-06-26T14:08:08;8.20;;;1.63;;
21527;SDS011;10925;49.102;-0.370;2023-06-26T14:10:35;7.65;;;1.77;;
21527;SDS011;10925;49.102;-0.370;2023-06-26T14:13:01;6.20;;;1.75;;
21527;SDS011;10925;49.102;-0.370;2023-06-26T14:15:30;10.65;;;2.28;;
21527;SDS011;10925;49.102;-0.370;2023-06-26T14:17:56;5.53;;;1.88;;
21527;SDS011;10925;49.102;-0.370;2023-06-26T14:20:22;9.95;;;2.25;;
21527;SDS011;10925;49.102;-0.370;2023-06-26T14:22:49;10.52;;;2.20;;
21527;SDS011;10925;49.102;-0.370;2023-06-26T14:25:16;9.23;;;2.10;;
21527;SDS011;10925;49.102;-0.370;2023-06-26T14:27:41;8.30;;;1.70;;
21527;SDS011;10925;49.102;-0.370;2023-06-26T14:30:08;10.25;;;2.20;;
21527;SDS011;10925;49.102;-0.370;2023-06-26T14:32:35;9.82;;;1.77;;
21527;SDS011;10925;49.102;-0.370;2023-06-26T14:35:01;7.22;;;1.90;;
21527;SDS011;10925;49.102;-0.370;2023-06-26T14:37:28;9.93;;;1.95;;
21527;SDS011;10925;49.102;-0.370;2023-06-26T14:39:55;6.10;;;1.70;;
21527;SDS011;10925;49.102;-0.370;2023-06-26T14:42:23;10.68;;;2.20;;
21527;SDS011;10925;49.102;-0.370;2023-06-26T14:44:50;6.15;;;1.70;;
21527;SDS011;10925;49.102;-0.370;2023-06-26T14:47:17;7.60;;;2.35;;
21527;SDS011;10925;49.102;-0.370;2023-06-26T14:49:47;8.90;;;1.75;;
21527;SDS011;10925;49.102;-0.370;2023-06-26T14:52:14;12.05;;;2.45;;
21527;SDS011;10925;49.102;-0.370;2023-06-26T14:54:41;9.32;;;1.88;;